createdAt,value
2022-10-13T00:00:08.557Z,21.80
2022-10-13T00:03:17.405Z,21.60
2022-10-13T00:06:28.806Z,20.40
2022-10-13T00:09:37.515Z,21.00
2022-10-13T00:12:46.205Z,22.40
2022-10-13T00:15:54.989Z,24.30
2022-10-13T00:19:03.382Z,21.10
2022-10-13T00:22:11.495Z,24.20
2022-10-13T00:25:19.991Z,24.00
2022-10-13T00:28:28.191Z,23.60
2022-10-13T00:31:37.771Z,23.50
2022-10-13T00:34:46.181Z,23.40
2022-10-13T00:37:54.581Z,23.90
2022-10-13T00:41:02.596Z,22.80
2022-10-13T00:44:42.711Z,23.40
2022-10-13T00:47:56.583Z,19.90
2022-10-13T00:51:05.375Z,25.10
2022-10-13T00:54:18.502Z,25.80
2022-10-13T00:57:27.399Z,21.10
2022-10-13T01:00:38.753Z,25.00
2022-10-13T01:03:48.510Z,23.70
2022-10-13T01:06:58.245Z,24.30
2022-10-13T01:10:08.136Z,25.70
2022-10-13T01:13:25.640Z,25.10
2022-10-13T01:16:46.942Z,26.40
2022-10-13T01:20:51.080Z,26.00
2022-10-13T01:24:44.884Z,27.60
2022-10-13T01:28:22.041Z,25.60
2022-10-13T01:31:40.103Z,26.80
2022-10-13T01:34:54.781Z,25.60
2022-10-13T01:38:16.524Z,27.00
2022-10-13T01:41:37.624Z,25.30
2022-10-13T01:44:52.322Z,24.70
2022-10-13T01:48:04.696Z,27.90
2022-10-13T01:51:19.269Z,25.90
2022-10-13T01:54:28.788Z,26.90
2022-10-13T01:57:41.727Z,25.70
2022-10-13T02:01:07.307Z,26.60
2022-10-13T02:04:38.929Z,27.90
2022-10-13T02:07:56.504Z,29.40
2022-10-13T02:11:17.248Z,25.40
2022-10-13T02:14:30.012Z,24.30
2022-10-13T02:17:38.858Z,25.30
2022-10-13T02:20:49.284Z,23.90
2022-10-13T02:23:57.411Z,26.60
2022-10-13T02:27:09.090Z,27.70
2022-10-13T02:30:27.861Z,29.60
2022-10-13T02:33:38.041Z,27.20
2022-10-13T02:36:46.493Z,30.00
2022-10-13T02:39:54.904Z,25.70
2022-10-13T02:43:02.913Z,29.20
2022-10-13T02:46:11.558Z,28.20
2022-10-13T02:49:21.291Z,26.60
2022-10-13T02:52:30.079Z,26.40
2022-10-13T02:55:38.789Z,25.30
2022-10-13T02:58:47.146Z,26.10
2022-10-13T03:01:55.479Z,25.10
2022-10-13T03:05:03.562Z,26.40
2022-10-13T03:08:11.720Z,24.10
2022-10-13T03:11:21.748Z,25.40
2022-10-13T03:14:30.105Z,22.70
2022-10-13T03:17:38.894Z,23.10
2022-10-13T03:20:56.821Z,23.20
2022-10-13T03:24:07.290Z,26.70
2022-10-13T03:27:16.025Z,21.10
2022-10-13T03:30:25.165Z,20.60
2022-10-13T03:33:34.279Z,22.10
2022-10-13T03:36:42.906Z,20.50
2022-10-13T03:39:51.160Z,23.60
2022-10-13T03:42:59.941Z,19.00
2022-10-13T03:46:10.625Z,19.50
2022-10-13T03:49:19.528Z,19.60
2022-10-13T03:52:28.465Z,20.20
2022-10-13T03:55:36.895Z,18.10
2022-10-13T03:58:45.025Z,21.90
2022-10-13T04:01:53.551Z,19.40
2022-10-13T04:05:02.046Z,22.60
2022-10-13T04:08:12.898Z,18.40
2022-10-13T04:11:22.049Z,20.50
2022-10-13T04:14:30.374Z,21.60
2022-10-13T04:17:38.773Z,19.50
2022-10-13T04:20:47.423Z,20.60
2022-10-13T04:23:58.682Z,20.30
2022-10-13T04:27:08.892Z,24.70
2022-10-13T04:30:19.638Z,24.40
2022-10-13T04:33:27.830Z,21.80
2022-10-13T04:36:36.192Z,26.40
2022-10-13T04:39:45.599Z,23.30
2022-10-13T04:42:54.669Z,23.50
2022-10-13T04:46:08.056Z,27.60
2022-10-13T04:49:17.094Z,23.60
2022-10-13T04:52:25.969Z,22.80
2022-10-13T04:55:36.569Z,23.50
2022-10-13T04:58:47.594Z,22.80
2022-10-13T05:01:55.762Z,23.50
2022-10-13T05:05:03.769Z,23.80
2022-10-13T05:08:11.714Z,21.50
2022-10-13T05:11:20.920Z,22.70
2022-10-13T05:14:31.333Z,22.20
2022-10-13T05:17:39.929Z,20.30
2022-10-13T05:20:48.385Z,23.60
2022-10-13T05:23:56.115Z,20.00
2022-10-13T05:27:04.431Z,19.90
2022-10-13T05:30:15.415Z,21.70
2022-10-13T05:33:23.622Z,22.60
2022-10-13T05:36:35.421Z,27.00
2022-10-13T05:39:43.451Z,22.10
2022-10-13T05:42:52.995Z,23.40
2022-10-13T05:46:01.624Z,23.90
2022-10-13T05:49:09.663Z,19.00
2022-10-13T05:52:18.082Z,21.30
2022-10-13T05:55:26.440Z,23.40
2022-10-13T05:58:35.679Z,23.60
2022-10-13T06:01:45.418Z,27.10
2022-10-13T06:04:58.105Z,27.40
2022-10-13T06:08:06.299Z,31.30
2022-10-13T06:11:14.458Z,27.10
2022-10-13T06:14:22.587Z,26.40
2022-10-13T06:17:30.405Z,24.40
2022-10-13T06:20:39.533Z,22.80
2022-10-13T06:23:47.543Z,22.60
2022-10-13T06:26:55.995Z,20.40
2022-10-13T06:30:04.672Z,34.20
2022-10-13T06:33:12.555Z,75.10
2022-10-13T06:36:20.401Z,41.40
2022-10-13T06:39:28.480Z,29.10
2022-10-13T06:42:36.573Z,59.60
2022-10-13T06:45:44.649Z,37.30
2022-10-13T06:48:55.373Z,45.60
2022-10-13T06:52:03.503Z,86.50
2022-10-13T06:55:12.413Z,44.30
2022-10-13T06:58:20.303Z,31.40
2022-10-13T07:01:28.213Z,29.20
2022-10-13T07:04:36.446Z,26.50
2022-10-13T07:07:44.559Z,27.10
2022-10-13T07:10:52.948Z,28.60
2022-10-13T07:17:09.270Z,26.20
2022-10-13T07:20:17.700Z,25.50
2022-10-13T07:23:25.976Z,59.00
2022-10-13T07:26:34.076Z,76.60
2022-10-13T07:29:42.429Z,38.90
2022-10-13T07:32:50.803Z,135.10
2022-10-13T07:36:01.748Z,124.60
2022-10-13T07:39:09.888Z,24.30
2022-10-13T07:42:18.109Z,23.50
2022-10-13T07:45:26.484Z,21.90
2022-10-13T07:48:35.197Z,23.70
2022-10-13T07:51:44.559Z,23.00
2022-10-13T07:54:53.155Z,32.30
2022-10-13T07:58:04.556Z,94.00
2022-10-13T08:01:14.011Z,125.60
2022-10-13T08:04:22.794Z,21.30
2022-10-13T08:07:31.013Z,23.70
2022-10-13T08:10:39.557Z,19.10
2022-10-13T08:13:50.368Z,21.90
2022-10-13T08:16:58.643Z,20.40
2022-10-13T08:20:07.755Z,19.70
2022-10-13T08:23:16.360Z,17.50
2022-10-13T08:26:28.215Z,19.70
2022-10-13T08:29:36.179Z,19.30
2022-10-13T08:32:44.550Z,19.20
2022-10-13T08:35:53.253Z,18.30
2022-10-13T08:39:01.690Z,18.50
2022-10-13T08:42:20.924Z,18.20
2022-10-13T08:45:41.739Z,17.80
2022-10-13T08:48:50.791Z,18.00
2022-10-13T08:51:59.994Z,19.10
2022-10-13T08:55:17.299Z,17.60
2022-10-13T08:58:29.835Z,19.40
2022-10-13T09:01:39.647Z,17.10
2022-10-13T09:04:53.737Z,17.50
2022-10-13T09:08:03.692Z,16.90
2022-10-13T09:11:15.099Z,19.30
2022-10-13T09:14:29.242Z,18.40
2022-10-13T09:17:39.066Z,14.90
2022-10-13T09:24:06.468Z,16.40
2022-10-13T09:27:18.442Z,14.90
2022-10-13T09:30:36.610Z,13.00
2022-10-13T09:33:44.927Z,14.30
2022-10-13T09:37:08.754Z,16.00
2022-10-13T09:40:25.055Z,12.90
2022-10-13T09:43:41.282Z,15.20
2022-10-13T09:46:56.976Z,13.60
2022-10-13T09:50:20.068Z,13.70
2022-10-13T09:53:34.896Z,12.70
2022-10-13T09:56:52.735Z,15.90
2022-10-13T10:00:14.597Z,13.80
2022-10-13T10:03:27.816Z,19.10
2022-10-13T10:06:37.558Z,13.90
2022-10-13T10:09:50.882Z,13.60
2022-10-13T10:12:59.006Z,16.80
2022-10-13T10:16:15.878Z,14.80
2022-10-13T10:19:33.018Z,11.60
2022-10-13T10:22:50.074Z,12.40
2022-10-13T10:26:06.908Z,14.60
2022-10-13T10:29:38.894Z,14.20
2022-10-13T10:32:55.015Z,13.80
2022-10-13T10:36:17.232Z,18.80
2022-10-13T10:39:37.868Z,18.90
2022-10-13T10:43:13.799Z,14.70
2022-10-13T10:46:26.267Z,15.90
2022-10-13T10:49:39.600Z,14.20
2022-10-13T10:53:00.731Z,16.00
2022-10-13T10:56:24.220Z,15.10
2022-10-13T10:59:57.610Z,15.10
2022-10-13T11:03:15.788Z,15.20
2022-10-13T11:10:22.357Z,13.20
2022-10-13T11:13:30.427Z,13.80
2022-10-13T11:17:00.141Z,14.40
2022-10-13T11:21:00.805Z,15.10
2022-10-13T11:24:50.130Z,13.80
2022-10-13T11:28:00.242Z,12.60
2022-10-13T11:31:33.743Z,15.40
2022-10-13T11:35:04.276Z,15.50
2022-10-13T11:38:37.685Z,16.20
2022-10-13T11:41:59.720Z,15.30
2022-10-13T11:45:29.522Z,14.60
2022-10-13T11:49:25.044Z,12.80
2022-10-13T11:53:02.354Z,13.50
2022-10-13T11:56:33.314Z,13.50
2022-10-13T11:59:50.012Z,12.90
2022-10-13T12:02:58.046Z,16.00
2022-10-13T12:06:19.274Z,15.60
2022-10-13T12:09:28.286Z,15.00
2022-10-13T12:12:37.003Z,14.60
2022-10-13T12:15:47.137Z,14.00
2022-10-13T12:18:55.397Z,14.20
2022-10-13T12:22:04.549Z,13.80
2022-10-13T12:25:23.063Z,18.30
2022-10-13T12:28:51.460Z,13.80
2022-10-13T12:32:00.338Z,14.20
2022-10-13T12:35:25.235Z,17.60
2022-10-13T12:38:33.582Z,18.20
2022-10-13T12:41:48.367Z,16.00
2022-10-13T12:44:57.185Z,17.00
2022-10-13T12:48:05.183Z,17.60
2022-10-13T12:51:29.054Z,14.60
2022-10-13T12:54:42.278Z,17.30
2022-10-13T12:57:53.483Z,15.00
2022-10-13T13:01:32.250Z,19.10
2022-10-13T13:04:48.050Z,17.20
2022-10-13T13:07:58.591Z,17.70
2022-10-13T13:11:21.102Z,16.60
2022-10-13T13:14:41.189Z,14.70
2022-10-13T13:17:58.636Z,14.30
2022-10-13T13:21:14.387Z,14.80
2022-10-13T13:24:35.971Z,14.10
2022-10-13T13:27:49.363Z,13.60
2022-10-13T13:31:00.491Z,17.10
2022-10-13T13:34:08.617Z,16.60
2022-10-13T13:37:27.618Z,14.70
2022-10-13T13:40:35.610Z,14.30
2022-10-13T13:43:43.989Z,15.50
2022-10-13T13:46:51.659Z,17.40
2022-10-13T13:50:00.566Z,12.90
2022-10-13T13:53:09.316Z,13.80
2022-10-13T13:56:20.304Z,11.90
2022-10-13T13:59:28.386Z,11.60
2022-10-13T14:02:36.787Z,15.80
2022-10-13T14:05:45.006Z,15.10
2022-10-13T14:08:53.492Z,12.70
2022-10-13T14:12:01.307Z,14.90
2022-10-13T14:15:11.387Z,14.40
2022-10-13T14:18:19.117Z,14.40
2022-10-13T14:21:26.918Z,14.90
2022-10-13T14:24:41.793Z,15.20
2022-10-13T14:27:59.623Z,15.20
2022-10-13T14:31:38.077Z,13.70
2022-10-13T14:39:59.886Z,16.90
2022-10-13T14:43:08.709Z,15.20
2022-10-13T14:46:17.222Z,15.40
2022-10-13T14:49:25.555Z,17.30
2022-10-13T14:52:33.602Z,16.20
2022-10-13T14:55:41.671Z,17.20
2022-10-13T14:58:51.647Z,17.80
2022-10-13T15:01:59.759Z,16.20
2022-10-13T15:05:08.723Z,20.20
2022-10-13T15:08:16.772Z,16.40
2022-10-13T15:11:25.890Z,16.40
2022-10-13T15:14:33.616Z,17.10
2022-10-13T15:17:41.530Z,20.60
2022-10-13T15:20:53.897Z,17.20
2022-10-13T15:24:02.634Z,15.70
2022-10-13T15:27:12.348Z,19.70
2022-10-13T15:33:29.490Z,16.20
2022-10-13T15:36:38.187Z,16.10
2022-10-13T15:39:46.088Z,19.40
2022-10-13T15:42:55.518Z,18.00
2022-10-13T15:46:06.913Z,19.30
2022-10-13T15:49:14.836Z,20.30
2022-10-13T15:52:23.109Z,19.70
2022-10-13T15:55:31.419Z,18.30
2022-10-13T15:58:40.978Z,16.10
2022-10-13T16:01:49.547Z,17.80
2022-10-13T16:04:58.348Z,17.10
2022-10-13T16:08:06.493Z,14.10
2022-10-13T16:11:17.114Z,15.30
2022-10-13T16:14:25.288Z,14.20
2022-10-13T16:17:33.510Z,15.20
2022-10-13T16:20:45.920Z,13.30
2022-10-13T16:23:54.413Z,14.10
2022-10-13T16:27:02.360Z,13.40
2022-10-13T16:30:12.809Z,13.90
2022-10-13T16:33:20.829Z,13.70
2022-10-13T16:36:29.051Z,13.20
2022-10-13T16:39:42.008Z,12.80
2022-10-13T16:42:51.471Z,17.40
2022-10-13T16:46:05.693Z,15.90
2022-10-13T16:49:15.135Z,15.90
2022-10-13T16:52:22.926Z,14.10
2022-10-13T16:55:31.022Z,14.40
2022-10-13T16:58:43.411Z,16.20
2022-10-13T17:01:51.546Z,14.00
2022-10-13T17:04:59.686Z,17.10
2022-10-13T17:08:08.965Z,13.00
2022-10-13T17:11:22.070Z,14.00
2022-10-13T17:14:30.427Z,15.20
2022-10-13T17:17:38.361Z,15.50
2022-10-13T17:20:56.047Z,13.70
2022-10-13T17:24:03.873Z,14.20
2022-10-13T17:27:11.813Z,13.40
2022-10-13T17:30:19.872Z,14.90
2022-10-13T17:33:28.335Z,15.40
2022-10-13T17:36:36.470Z,17.60
2022-10-13T17:39:44.661Z,16.40
2022-10-13T17:42:52.893Z,18.50
2022-10-13T17:46:34.467Z,16.70
2022-10-13T17:49:38.315Z,16.80
2022-10-13T17:52:46.230Z,14.10
2022-10-13T17:55:54.844Z,16.50
2022-10-13T17:59:05.424Z,15.00
2022-10-13T18:02:13.743Z,19.00
2022-10-13T18:05:22.013Z,19.10
2022-10-13T18:08:30.659Z,16.70
2022-10-13T18:11:39.500Z,16.10
2022-10-13T18:14:49.722Z,18.90
2022-10-13T18:17:58.225Z,19.10
2022-10-13T18:21:08.878Z,17.20
2022-10-13T18:24:18.622Z,17.40
2022-10-13T18:30:33.890Z,14.50
2022-10-13T18:33:42.110Z,19.00
2022-10-13T18:36:54.217Z,19.30
2022-10-13T18:40:02.154Z,19.40
2022-10-13T18:43:10.306Z,16.90
2022-10-13T18:46:18.276Z,19.10
2022-10-13T18:49:31.352Z,16.90
2022-10-13T18:52:39.770Z,16.80
2022-10-13T18:55:47.750Z,18.30
2022-10-13T18:58:59.736Z,19.40
2022-10-13T19:02:08.594Z,17.90
2022-10-13T19:05:16.631Z,17.30
2022-10-13T19:08:24.798Z,15.10
2022-10-13T19:11:34.109Z,23.40
2022-10-13T19:14:41.988Z,17.20
2022-10-13T19:17:56.701Z,17.10
2022-10-13T19:21:05.297Z,17.40
2022-10-13T19:24:14.815Z,17.60
2022-10-13T19:27:23.228Z,21.90
2022-10-13T19:30:31.286Z,17.00
2022-10-13T19:33:44.802Z,16.60
2022-10-13T19:36:53.358Z,17.90
2022-10-13T19:40:01.513Z,22.80
2022-10-13T19:43:09.358Z,18.20
2022-10-13T19:46:17.446Z,15.80
2022-10-13T19:49:26.745Z,18.70
2022-10-13T19:52:34.722Z,17.90
2022-10-13T19:55:46.584Z,16.60
2022-10-13T19:58:55.931Z,20.60
2022-10-13T20:02:03.798Z,19.30
2022-10-13T20:05:13.987Z,21.40
2022-10-13T20:08:21.984Z,19.80
2022-10-13T20:11:30.415Z,18.50
2022-10-13T20:14:38.655Z,20.50
2022-10-13T20:17:46.564Z,20.40
2022-10-13T20:20:54.815Z,19.20
2022-10-13T20:24:03.018Z,19.10
2022-10-13T20:27:10.923Z,21.70
2022-10-13T20:30:19.448Z,22.90
2022-10-13T20:33:28.046Z,24.10
2022-10-13T20:36:39.015Z,23.40
2022-10-13T20:39:50.250Z,20.70
2022-10-13T20:42:58.545Z,21.50
2022-10-13T20:46:09.557Z,25.00
2022-10-13T20:49:17.675Z,22.80
2022-10-13T20:52:25.664Z,20.70
2022-10-13T20:55:38.122Z,22.20
2022-10-13T20:58:50.578Z,22.90
2022-10-13T21:01:58.515Z,23.00
2022-10-13T21:05:06.603Z,21.70
2022-10-13T21:08:14.895Z,22.10
2022-10-13T21:11:24.784Z,22.00
2022-10-13T21:17:42.309Z,20.80
2022-10-13T21:20:50.871Z,21.70
2022-10-13T21:24:01.606Z,18.40
2022-10-13T21:27:11.358Z,18.20
2022-10-13T21:30:19.853Z,16.40
2022-10-13T21:33:27.773Z,18.00
2022-10-13T21:36:36.548Z,17.40
2022-10-13T21:42:55.213Z,19.20
2022-10-13T21:46:13.518Z,18.20
2022-10-13T21:49:21.322Z,16.90
2022-10-13T21:52:30.105Z,21.80
2022-10-13T21:55:37.871Z,17.60
2022-10-13T21:58:46.469Z,18.00
2022-10-13T22:01:54.791Z,15.90
2022-10-13T22:05:02.688Z,16.90
2022-10-13T22:08:10.641Z,18.40
2022-10-13T22:11:19.612Z,20.00
2022-10-13T22:14:27.559Z,15.80
2022-10-13T22:17:35.947Z,17.00
2022-10-13T22:20:44.831Z,17.80
2022-10-13T22:23:53.340Z,18.80
2022-10-13T22:27:01.040Z,19.40
2022-10-13T22:30:11.711Z,19.00
2022-10-13T22:33:19.866Z,19.60
2022-10-13T22:36:31.086Z,21.30
2022-10-13T22:39:39.062Z,20.20
2022-10-13T22:42:47.166Z,19.70
2022-10-13T22:45:56.443Z,20.50
2022-10-13T22:49:06.278Z,20.30
2022-10-13T22:55:20.942Z,17.50
2022-10-13T22:58:28.951Z,19.40
2022-10-13T23:01:37.705Z,21.90
2022-10-13T23:04:45.613Z,21.40
2022-10-13T23:07:53.433Z,20.10
2022-10-13T23:11:01.513Z,20.60
2022-10-13T23:14:09.873Z,19.60
2022-10-13T23:17:18.073Z,23.30
2022-10-13T23:20:26.446Z,22.80
2022-10-13T23:23:34.955Z,25.30
2022-10-13T23:26:43.037Z,21.10
2022-10-13T23:29:51.164Z,22.40
2022-10-13T23:32:58.999Z,24.90
2022-10-13T23:36:08.619Z,26.50
2022-10-13T23:39:16.889Z,24.00
2022-10-13T23:42:24.761Z,22.20
2022-10-13T23:45:32.953Z,23.40
2022-10-13T23:48:41.579Z,25.80
2022-10-13T23:51:50.156Z,22.80
2022-10-13T23:54:57.833Z,24.90
2022-10-13T23:58:06.204Z,22.40
